createdAt,value
2019-04-22T00:00:10.759Z,74.90
2019-04-22T00:01:23.185Z,75.00
2019-04-22T00:02:24.663Z,75.10
2019-04-22T00:03:38.760Z,75.80
2019-04-22T00:04:48.512Z,76.20
2019-04-22T00:06:00.308Z,76.10
2019-04-22T00:07:11.750Z,76.00
2019-04-22T00:08:22.826Z,76.20
2019-04-22T00:09:24.076Z,75.40
2019-04-22T00:10:45.354Z,76.00
2019-04-22T00:11:46.052Z,76.20
2019-04-22T00:12:51.573Z,76.20
2019-04-22T00:14:59.991Z,76.60
2019-04-22T00:15:59.405Z,76.60
2019-04-22T00:17:16.904Z,76.50
2019-04-22T00:18:28.266Z,76.30
2019-04-22T00:19:30.381Z,76.70
2019-04-22T00:20:36.508Z,76.30
2019-04-22T00:21:41.916Z,76.40
2019-04-22T00:22:47.959Z,76.80
2019-04-22T00:23:54.738Z,77.00
2019-04-22T00:25:01.398Z,77.60
2019-04-22T00:26:14.825Z,77.70
2019-04-22T00:27:13.691Z,77.50
2019-04-22T00:28:21.700Z,77.70
2019-04-22T00:29:42.360Z,77.30
2019-04-22T00:30:27.804Z,77.00
2019-04-22T00:32:03.448Z,77.80
2019-04-22T00:33:19.042Z,78.30
2019-04-22T00:34:24.259Z,78.00
2019-04-22T00:35:29.282Z,78.10
2019-04-22T00:36:38.034Z,78.60
2019-04-22T00:37:43.224Z,79.00
2019-04-22T00:38:52.895Z,79.00
2019-04-22T00:39:52.123Z,79.20
2019-04-22T00:41:00.518Z,79.50
2019-04-22T00:42:09.966Z,79.60
2019-04-22T00:43:13.595Z,79.70
2019-04-22T00:44:25.579Z,80.10
2019-04-22T00:45:31.043Z,81.30
2019-04-22T00:46:38.366Z,81.20
2019-04-22T00:47:41.496Z,81.20
2019-04-22T00:48:57.576Z,81.90
2019-04-22T00:51:08.753Z,81.10
2019-04-22T00:53:19.776Z,82.20
2019-04-22T00:54:18.049Z,82.80
2019-04-22T00:55:24.750Z,83.10
2019-04-22T00:56:31.007Z,83.40
2019-04-22T00:57:42.577Z,84.60
2019-04-22T00:59:52.328Z,85.00
2019-04-22T01:01:04.655Z,85.00
2019-04-22T01:02:07.306Z,86.60
2019-04-22T01:03:19.967Z,86.10
2019-04-22T01:04:23.041Z,86.30
2019-04-22T01:05:30.218Z,86.90
2019-04-22T01:06:49.447Z,87.00
2019-04-22T01:07:35.612Z,87.70
2019-04-22T01:08:53.085Z,87.40
2019-04-22T01:09:51.790Z,87.50
2019-04-22T01:11:03.237Z,87.30
2019-04-22T01:12:10.067Z,87.90
2019-04-22T01:13:14.153Z,88.40
2019-04-22T01:14:13.151Z,89.30
2019-04-22T01:15:23.699Z,89.00
2019-04-22T01:16:32.441Z,89.50
2019-04-22T01:17:35.895Z,90.10
2019-04-22T01:18:46.182Z,90.20
2019-04-22T01:19:52.594Z,90.70
2019-04-22T01:21:05.861Z,91.00
2019-04-22T01:21:58.557Z,90.70
2019-04-22T01:23:08.117Z,90.60
2019-04-22T01:24:12.118Z,90.70
2019-04-22T01:25:21.732Z,91.10
2019-04-22T01:26:25.528Z,91.30
2019-04-22T01:27:31.109Z,91.20
2019-04-22T01:28:34.513Z,91.60
2019-04-22T01:29:43.615Z,91.90
2019-04-22T01:30:45.964Z,92.10
2019-04-22T01:31:47.363Z,91.70
2019-04-22T01:32:57.954Z,91.60
2019-04-22T01:34:11.444Z,91.70
2019-04-22T01:35:17.952Z,91.90
2019-04-22T01:36:33.914Z,92.30
2019-04-22T01:37:34.606Z,92.50
2019-04-22T01:38:53.895Z,92.50
2019-04-22T01:39:57.272Z,92.80
2019-04-22T01:41:07.178Z,92.60
2019-04-22T01:42:06.292Z,92.20
2019-04-22T01:43:18.596Z,92.00
2019-04-22T01:44:29.447Z,91.80
2019-04-22T01:46:40.830Z,91.60
2019-04-22T01:48:52.497Z,91.60
2019-04-22T01:49:55.684Z,91.60
2019-04-22T01:50:54.737Z,91.50
2019-04-22T01:52:07.751Z,91.30
2019-04-22T01:53:11.781Z,91.30
2019-04-22T01:56:39.007Z,92.00
2019-04-22T01:57:39.361Z,91.80
2019-04-22T01:58:38.074Z,91.90
2019-04-22T01:59:43.149Z,92.10
2019-04-22T02:01:14.724Z,92.30
2019-04-22T02:02:02.623Z,92.30
2019-04-22T02:03:12.807Z,92.60
2019-04-22T02:04:19.141Z,93.10
2019-04-22T02:05:26.809Z,93.10
2019-04-22T02:06:35.205Z,93.40
2019-04-22T02:07:42.337Z,93.50
2019-04-22T02:09:56.064Z,93.80
2019-04-22T02:11:00.960Z,93.60
2019-04-22T02:12:08.010Z,92.90
2019-04-22T02:13:15.431Z,93.50
2019-04-22T02:14:20.688Z,94.40
2019-04-22T02:15:23.967Z,94.20
2019-04-22T02:16:34.298Z,94.00
2019-04-22T02:17:37.169Z,93.90
2019-04-22T02:18:45.188Z,94.60
2019-04-22T02:19:53.413Z,94.50
2019-04-22T02:20:54.903Z,94.60
2019-04-22T02:21:59.613Z,94.70
2019-04-22T02:25:40.953Z,94.50
2019-04-22T02:26:54.702Z,94.10
2019-04-22T02:27:56.076Z,94.00
2019-04-22T02:28:55.179Z,93.40
2019-04-22T02:30:22.519Z,93.10
2019-04-22T02:32:43.861Z,93.50
2019-04-22T02:34:40.280Z,92.90
2019-04-22T02:35:58.398Z,93.20
2019-04-22T02:36:50.865Z,92.50
2019-04-22T02:38:04.954Z,93.00
2019-04-22T02:40:09.222Z,92.90
2019-04-22T02:41:23.363Z,92.80
2019-04-22T02:45:58.223Z,93.90
2019-04-22T02:47:11.803Z,93.50
2019-04-22T02:47:59.124Z,93.40
2019-04-22T02:49:11.339Z,93.40
2019-04-22T02:50:07.410Z,93.20
2019-04-22T02:51:16.338Z,92.30
2019-04-22T02:52:26.102Z,92.20
2019-04-22T02:53:59.319Z,92.50
2019-04-22T02:55:41.333Z,92.90
2019-04-22T02:56:47.645Z,92.80
2019-04-22T02:57:47.459Z,92.40
2019-04-22T03:01:31.435Z,92.10
2019-04-22T03:02:19.001Z,92.40
2019-04-22T03:03:56.552Z,92.50
2019-04-22T03:04:24.599Z,92.50
2019-04-22T03:05:53.404Z,93.40
2019-04-22T03:07:58.597Z,93.80
2019-04-22T03:09:07.533Z,94.10
2019-04-22T03:11:19.897Z,94.20
2019-04-22T03:13:29.155Z,93.10
2019-04-22T03:14:30.260Z,93.00
2019-04-22T03:15:44.793Z,92.60
2019-04-22T03:17:51.579Z,92.30
2019-04-22T03:20:06.291Z,93.00
2019-04-22T03:22:16.565Z,93.10
2019-04-22T03:23:45.383Z,93.10
2019-04-22T03:24:25.598Z,93.70
2019-04-22T03:27:40.217Z,93.50
2019-04-22T03:28:57.041Z,93.20
2019-04-22T03:32:28.933Z,93.70
2019-04-22T03:36:58.165Z,93.30
2019-04-22T03:37:32.414Z,93.30
2019-04-22T03:38:47.937Z,93.50
2019-04-22T03:40:46.498Z,93.80
2019-04-22T03:46:21.081Z,94.90
2019-04-22T03:48:37.918Z,94.80
2019-04-22T03:49:49.903Z,94.60
2019-04-22T03:50:39.006Z,94.40
2019-04-22T03:53:05.908Z,94.30
2019-04-22T03:54:13.113Z,94.60
2019-04-22T03:55:07.277Z,94.90
2019-04-22T03:56:47.178Z,95.20
2019-04-22T03:58:32.374Z,95.50
2019-04-22T04:00:47.601Z,96.10
2019-04-22T04:03:11.929Z,96.20
2019-04-22T04:04:09.389Z,96.50
2019-04-22T04:05:10.472Z,96.20
2019-04-22T04:13:03.318Z,95.00
2019-04-22T04:14:12.340Z,94.10
2019-04-22T04:16:10.744Z,93.50
2019-04-22T04:17:20.618Z,93.40
2019-04-22T04:18:30.717Z,93.20
2019-04-22T04:19:48.594Z,92.80
2019-04-22T04:21:44.171Z,92.00
2019-04-22T04:23:05.517Z,91.90
2019-04-22T04:24:11.171Z,92.00
2019-04-22T04:25:17.195Z,91.50
2019-04-22T04:27:37.050Z,91.10
2019-04-22T04:28:47.690Z,91.30
2019-04-22T04:29:49.169Z,90.80
2019-04-22T04:30:36.571Z,90.80
2019-04-22T04:32:52.676Z,90.70
2019-04-22T04:34:03.573Z,90.50
2019-04-22T04:36:17.099Z,90.60
2019-04-22T04:38:21.196Z,91.00
2019-04-22T04:39:34.886Z,91.20
2019-04-22T04:40:31.650Z,91.20
2019-04-22T04:43:08.395Z,91.50
2019-04-22T04:44:06.163Z,91.40
2019-04-22T04:46:13.760Z,91.50
2019-04-22T04:47:38.949Z,91.60
2019-04-22T04:48:34.462Z,92.00
2019-04-22T04:49:46.193Z,92.40
2019-04-22T04:51:50.636Z,92.30
2019-04-22T04:55:18.423Z,93.20
2019-04-22T04:57:25.998Z,93.40
2019-04-22T04:58:36.585Z,93.60
2019-04-22T05:00:50.610Z,92.60
2019-04-22T05:02:52.466Z,92.60
2019-04-22T05:06:12.646Z,91.70
2019-04-22T05:07:28.288Z,92.30
2019-04-22T05:08:40.053Z,92.00
2019-04-22T05:11:53.759Z,90.70
2019-04-22T05:14:05.522Z,91.00
2019-04-22T05:15:09.036Z,91.00
2019-04-22T05:17:21.145Z,90.90
2019-04-22T05:18:33.479Z,90.70
2019-04-22T05:19:29.520Z,90.50
2019-04-22T05:20:49.240Z,90.90
2019-04-22T05:21:40.693Z,89.50
2019-04-22T05:24:00.247Z,90.00
2019-04-22T05:24:59.788Z,90.10
2019-04-22T05:26:04.309Z,90.10
2019-04-22T05:27:26.218Z,89.00
2019-04-22T05:28:17.829Z,89.30
2019-04-22T05:29:26.744Z,89.60
2019-04-22T05:30:35.890Z,88.80
2019-04-22T05:31:37.582Z,89.10
2019-04-22T05:33:48.319Z,88.80
2019-04-22T05:34:52.983Z,89.10
2019-04-22T05:36:01.520Z,90.00
2019-04-22T05:37:07.590Z,90.10
2019-04-22T05:39:17.148Z,89.20
2019-04-22T05:40:24.091Z,90.10
2019-04-22T05:41:32.364Z,89.50
2019-04-22T05:42:39.445Z,88.70
2019-04-22T05:43:42.574Z,89.70
2019-04-22T05:44:50.976Z,89.80
2019-04-22T05:46:00.568Z,89.10
2019-04-22T05:47:01.392Z,89.20
2019-04-22T05:48:15.754Z,90.00
2019-04-22T05:50:20.405Z,88.30
2019-04-22T05:51:31.494Z,88.60
2019-04-22T05:52:34.440Z,89.00
2019-04-22T05:53:41.971Z,88.30
2019-04-22T05:54:50.872Z,88.20
2019-04-22T05:55:56.539Z,88.20
2019-04-22T05:56:51.402Z,87.20
2019-04-22T05:58:02.773Z,87.10
2019-04-22T05:59:11.681Z,87.40
2019-04-22T06:00:22.832Z,87.60
2019-04-22T06:02:39.428Z,89.30
2019-04-22T06:03:37.902Z,88.60
2019-04-22T06:04:48.019Z,88.40
2019-04-22T06:05:47.363Z,86.70
2019-04-22T06:06:57.147Z,85.70
2019-04-22T06:08:04.198Z,86.30
2019-04-22T06:09:10.416Z,86.30
2019-04-22T06:10:26.067Z,85.70
2019-04-22T06:11:28.372Z,85.70
2019-04-22T06:12:29.228Z,85.50
2019-04-22T06:13:31.928Z,84.60
2019-04-22T06:14:47.966Z,84.30
2019-04-22T06:15:52.831Z,83.80
2019-04-22T06:17:08.298Z,83.00
2019-04-22T06:18:22.575Z,83.00
2019-04-22T06:20:33.921Z,82.10
2019-04-22T06:22:43.198Z,80.10
2019-04-22T06:23:49.227Z,78.20
2019-04-22T06:24:59.301Z,76.60
2019-04-22T06:27:15.966Z,76.10
2019-04-22T06:28:22.213Z,75.70
2019-04-22T06:29:22.211Z,75.20
2019-04-22T06:31:54.388Z,73.20
2019-04-22T06:32:42.232Z,72.50
2019-04-22T06:33:49.832Z,71.70
2019-04-22T06:34:48.653Z,71.50
2019-04-22T06:35:56.353Z,69.70
2019-04-22T06:37:07.337Z,70.30
2019-04-22T06:38:26.399Z,71.40
2019-04-22T06:39:23.504Z,69.20
2019-04-22T06:40:29.680Z,68.30
2019-04-22T06:41:33.277Z,67.50
2019-04-22T06:42:36.645Z,66.70
2019-04-22T06:43:49.658Z,67.80
2019-04-22T06:44:56.383Z,66.80
2019-04-22T06:45:53.071Z,65.70
2019-04-22T06:47:00.665Z,65.90
2019-04-22T06:48:13.113Z,65.00
2019-04-22T06:49:17.379Z,64.50
2019-04-22T06:50:28.070Z,64.30
2019-04-22T06:51:26.987Z,62.80
2019-04-22T06:52:30.781Z,63.70
2019-04-22T06:53:41.141Z,64.20
2019-04-22T06:54:50.393Z,63.80
2019-04-22T06:55:51.454Z,63.00
2019-04-22T06:57:00.716Z,62.40
2019-04-22T06:58:05.583Z,62.00
2019-04-22T06:59:14.626Z,60.40
2019-04-22T07:00:17.505Z,60.80
2019-04-22T07:03:48.935Z,60.90
2019-04-22T07:04:44.940Z,62.70
2019-04-22T07:05:51.516Z,61.30
2019-04-22T07:08:16.331Z,60.40
2019-04-22T07:09:31.430Z,60.10
2019-04-22T07:11:18.205Z,61.00
2019-04-22T07:12:33.147Z,61.30
2019-04-22T07:13:43.141Z,61.20
2019-04-22T07:14:43.224Z,60.80
2019-04-22T07:15:51.370Z,60.10
2019-04-22T07:16:56.207Z,59.10
2019-04-22T07:18:03.048Z,58.50
2019-04-22T07:19:09.347Z,57.80
2019-04-22T07:20:17.481Z,57.00
2019-04-22T07:21:23.670Z,57.50
2019-04-22T07:22:27.814Z,57.10
2019-04-22T07:23:44.666Z,57.50
2019-04-22T07:24:47.718Z,57.50
2019-04-22T07:25:49.942Z,56.80
2019-04-22T07:27:00.227Z,56.10
2019-04-22T07:28:01.045Z,56.10
2019-04-22T07:29:07.651Z,56.70
2019-04-22T07:30:22.042Z,57.80
2019-04-22T07:31:24.860Z,57.10
2019-04-22T07:33:37.902Z,56.60
2019-04-22T07:34:40.778Z,56.40
2019-04-22T07:36:00.659Z,56.40
2019-04-22T07:36:59.180Z,56.70
2019-04-22T07:38:05.746Z,57.50
2019-04-22T07:39:10.337Z,56.10
2019-04-22T07:40:16.834Z,55.20
2019-04-22T07:41:20.012Z,55.20
2019-04-22T07:42:32.859Z,54.70
2019-04-22T07:43:53.018Z,54.00
2019-04-22T07:44:45.189Z,55.40
2019-04-22T07:45:49.286Z,54.90
2019-04-22T07:47:04.815Z,54.20
2019-04-22T07:48:09.826Z,54.00
2019-04-22T07:49:10.833Z,54.80
2019-04-22T07:50:31.192Z,54.50
2019-04-22T07:51:21.630Z,54.50
2019-04-22T07:53:33.578Z,54.80
2019-04-22T07:54:50.886Z,55.30
2019-04-22T07:55:53.690Z,55.30
2019-04-22T07:57:02.650Z,55.30
2019-04-22T07:58:10.207Z,55.70
2019-04-22T07:59:10.657Z,54.80
2019-04-22T08:00:23.730Z,55.30
2019-04-22T08:01:28.097Z,53.70
2019-04-22T08:02:37.923Z,53.30
2019-04-22T08:03:47.731Z,52.80
2019-04-22T08:04:57.927Z,53.20
2019-04-22T08:05:58.775Z,53.50
2019-04-22T08:07:18.069Z,53.40
2019-04-22T08:08:08.508Z,52.90
2019-04-22T08:09:13.883Z,52.90
2019-04-22T08:10:23.863Z,52.60
2019-04-22T08:11:40.559Z,51.90
2019-04-22T08:12:34.728Z,53.50
2019-04-22T08:13:34.217Z,53.10
2019-04-22T08:14:45.971Z,52.10
2019-04-22T08:15:53.713Z,51.30
2019-04-22T08:17:14.390Z,50.70
2019-04-22T08:18:02.824Z,51.50
2019-04-22T08:19:17.019Z,51.10
2019-04-22T08:21:23.854Z,50.80
2019-04-22T08:22:27.246Z,48.50
2019-04-22T08:23:35.453Z,46.70
2019-04-22T08:25:49.490Z,47.00
2019-04-22T08:26:58.143Z,46.40
2019-04-22T08:28:06.922Z,47.30
2019-04-22T08:29:16.118Z,48.00
2019-04-22T08:30:23.481Z,49.20
2019-04-22T08:31:29.970Z,48.20
2019-04-22T08:32:36.125Z,48.50
2019-04-22T08:34:42.441Z,47.90
2019-04-22T08:36:12.035Z,46.80
2019-04-22T08:37:25.629Z,48.70
2019-04-22T08:38:35.720Z,47.00
2019-04-22T08:39:16.770Z,45.80
2019-04-22T08:40:26.015Z,46.40
2019-04-22T08:43:51.433Z,46.00
2019-04-22T08:44:56.991Z,47.40
2019-04-22T08:45:54.559Z,48.20
2019-04-22T08:47:08.416Z,47.40
2019-04-22T08:48:04.475Z,47.00
2019-04-22T08:49:21.769Z,46.80
2019-04-22T08:50:33.730Z,47.10
2019-04-22T08:51:25.332Z,47.80
2019-04-22T08:52:36.865Z,47.30
2019-04-22T08:53:46.614Z,46.40
2019-04-22T08:55:58.197Z,48.00
2019-04-22T08:57:00.097Z,48.60
2019-04-22T08:58:25.117Z,47.70
2019-04-22T08:59:21.803Z,48.10
2019-04-22T09:00:20.003Z,49.30
2019-04-22T09:02:36.952Z,47.80
2019-04-22T09:03:38.281Z,48.30
2019-04-22T09:04:42.140Z,48.70
2019-04-22T09:07:18.288Z,48.90
2019-04-22T09:08:07.730Z,49.40
2019-04-22T09:09:11.710Z,50.00
2019-04-22T09:10:17.154Z,51.00
2019-04-22T09:11:32.847Z,50.30
2019-04-22T09:12:50.000Z,50.20
2019-04-22T09:13:45.407Z,50.90
2019-04-22T09:14:47.635Z,50.50
2019-04-22T09:15:48.855Z,49.60
2019-04-22T09:16:54.800Z,50.50
2019-04-22T09:18:09.521Z,50.50
2019-04-22T09:19:24.180Z,52.00
2019-04-22T09:20:18.464Z,51.10
2019-04-22T09:21:31.890Z,51.20
2019-04-22T09:22:26.395Z,51.60
2019-04-22T09:23:40.382Z,51.90
2019-04-22T09:24:43.090Z,52.30
2019-04-22T09:25:50.015Z,51.70
2019-04-22T09:26:54.462Z,51.10
2019-04-22T09:28:00.749Z,50.90
2019-04-22T09:29:17.342Z,51.90
2019-04-22T09:30:17.026Z,51.70
2019-04-22T09:31:19.539Z,52.30
2019-04-22T09:32:26.674Z,51.30
2019-04-22T09:33:31.815Z,51.40
2019-04-22T09:34:39.820Z,51.70
2019-04-22T09:35:56.862Z,53.10
2019-04-22T09:37:04.374Z,52.70
2019-04-22T09:38:12.558Z,54.10
2019-04-22T09:39:00.643Z,53.20
2019-04-22T09:41:18.848Z,52.70
2019-04-22T09:42:24.218Z,53.00
2019-04-22T09:43:32.043Z,52.60
2019-04-22T09:44:40.245Z,52.60
2019-04-22T09:45:43.204Z,52.20
2019-04-22T09:46:52.178Z,52.60
2019-04-22T09:48:00.936Z,53.10
2019-04-22T09:49:12.266Z,52.80
2019-04-22T09:50:15.065Z,52.70
2019-04-22T09:51:18.599Z,52.50
2019-04-22T09:52:25.747Z,52.30
2019-04-22T09:53:36.544Z,53.00
2019-04-22T09:54:51.027Z,53.60
2019-04-22T09:55:53.198Z,54.60
2019-04-22T09:57:09.012Z,55.10
2019-04-22T09:57:55.762Z,55.70
2019-04-22T09:59:05.604Z,54.40
2019-04-22T10:00:28.673Z,55.20
2019-04-22T10:03:39.722Z,54.40
2019-04-22T10:04:41.929Z,54.00
2019-04-22T10:05:55.706Z,54.90
2019-04-22T10:06:45.628Z,54.40
2019-04-22T10:07:59.465Z,53.90
2019-04-22T10:11:23.962Z,54.50
2019-04-22T10:12:30.371Z,54.60
2019-04-22T10:13:35.641Z,54.10
2019-04-22T10:14:43.468Z,54.80
2019-04-22T10:15:48.112Z,54.10
2019-04-22T10:16:57.985Z,53.70
2019-04-22T10:17:58.057Z,54.80
2019-04-22T10:19:07.071Z,54.80
2019-04-22T10:20:10.223Z,53.20
2019-04-22T10:21:16.297Z,52.20
2019-04-22T10:22:27.980Z,53.30
2019-04-22T10:23:31.509Z,54.40
2019-04-22T10:24:33.055Z,53.40
2019-04-22T10:25:45.899Z,54.10
2019-04-22T10:27:01.998Z,53.70
2019-04-22T10:28:01.319Z,55.40
2019-04-22T10:29:12.236Z,55.10
2019-04-22T10:31:19.475Z,54.90
2019-04-22T10:32:18.387Z,56.20
2019-04-22T10:33:21.976Z,56.00
2019-04-22T10:34:23.001Z,54.90
2019-04-22T10:35:19.931Z,53.80
2019-04-22T10:36:23.727Z,54.20
2019-04-22T10:37:28.452Z,55.60
2019-04-22T10:38:34.488Z,54.20
2019-04-22T10:39:51.364Z,55.10
2019-04-22T10:40:50.330Z,55.50
2019-04-22T10:41:56.706Z,54.70
2019-04-22T10:43:03.101Z,55.50
2019-04-22T10:44:08.860Z,54.80
2019-04-22T10:45:16.528Z,54.80
2019-04-22T10:46:22.167Z,54.90
2019-04-22T10:47:27.964Z,55.20
2019-04-22T10:48:32.773Z,54.90
2019-04-22T10:49:38.293Z,55.40
2019-04-22T10:50:46.663Z,55.20
2019-04-22T10:51:58.270Z,56.60
2019-04-22T10:53:03.700Z,56.90
2019-04-22T10:54:09.612Z,57.40
2019-04-22T10:55:14.922Z,57.00
2019-04-22T10:56:20.871Z,57.10
2019-04-22T10:57:25.691Z,58.40
2019-04-22T10:58:30.832Z,58.60
2019-04-22T10:59:36.469Z,57.80
2019-04-22T11:00:50.210Z,58.50
2019-04-22T11:01:55.287Z,57.30
2019-04-22T11:03:00.181Z,57.20
2019-04-22T11:04:06.976Z,58.20
2019-04-22T11:05:12.312Z,58.20
2019-04-22T11:06:19.079Z,57.70
2019-04-22T11:07:30.799Z,58.50
2019-04-22T11:08:40.291Z,58.50
2019-04-22T11:09:49.348Z,58.50
2019-04-22T11:11:01.775Z,59.60
2019-04-22T11:12:01.412Z,59.20
2019-04-22T11:13:01.054Z,59.90
2019-04-22T11:14:07.456Z,58.90
2019-04-22T11:15:13.500Z,60.00
2019-04-22T11:16:19.354Z,59.50
2019-04-22T11:17:25.994Z,59.30
2019-04-22T11:18:31.639Z,59.40
2019-04-22T11:19:37.360Z,60.30
2019-04-22T11:20:42.094Z,60.40
2019-04-22T11:21:59.988Z,60.40
2019-04-22T11:22:54.199Z,58.50
2019-04-22T11:23:58.964Z,58.00
2019-04-22T11:25:03.687Z,57.90
2019-04-22T11:26:09.935Z,58.20
2019-04-22T11:27:14.961Z,59.10
2019-04-22T11:28:19.999Z,59.20
2019-04-22T11:29:25.568Z,58.70
2019-04-22T11:30:32.349Z,58.30
2019-04-22T11:31:38.611Z,60.20
2019-04-22T11:32:44.660Z,60.50
2019-04-22T11:33:50.286Z,61.00
2019-04-22T11:34:56.054Z,60.10
2019-04-22T11:36:01.993Z,60.20
2019-04-22T11:37:07.457Z,60.00
2019-04-22T11:38:13.061Z,60.80
2019-04-22T11:39:19.624Z,59.50
2019-04-22T11:40:33.813Z,59.40
2019-04-22T11:41:31.774Z,61.00
2019-04-22T11:42:38.426Z,60.40
2019-04-22T11:43:43.429Z,59.40
2019-04-22T11:44:48.102Z,60.10
2019-04-22T11:45:53.352Z,59.80
2019-04-22T11:47:01.565Z,59.30
2019-04-22T11:48:09.038Z,59.50
2019-04-22T11:49:14.144Z,59.70
2019-04-22T11:50:19.918Z,59.80
2019-04-22T11:51:25.024Z,61.00
2019-04-22T11:52:30.937Z,60.90
2019-04-22T11:53:36.600Z,61.10
2019-04-22T11:54:42.964Z,59.90
2019-04-22T11:55:48.981Z,59.90
2019-04-22T11:56:54.889Z,59.20
2019-04-22T11:58:00.987Z,58.70
2019-04-22T11:59:06.777Z,59.30
2019-04-22T12:00:12.790Z,59.60
2019-04-22T12:01:19.002Z,59.40
2019-04-22T12:02:27.212Z,60.00
2019-04-22T12:03:31.898Z,59.80
2019-04-22T12:04:37.991Z,60.00
2019-04-22T12:05:43.945Z,59.70
2019-04-22T12:06:49.719Z,59.70
2019-04-22T12:07:55.199Z,59.00
2019-04-22T12:09:01.547Z,58.60
2019-04-22T12:10:19.226Z,58.40
2019-04-22T12:11:16.671Z,59.70
2019-04-22T12:12:21.765Z,59.50
2019-04-22T12:13:28.383Z,59.60
2019-04-22T12:14:34.096Z,58.80
2019-04-22T12:15:38.935Z,58.70
2019-04-22T12:16:43.773Z,59.80
2019-04-22T12:17:50.937Z,60.20
2019-04-22T12:18:58.519Z,59.80
2019-04-22T12:20:05.607Z,59.90
2019-04-22T12:21:09.055Z,59.50
2019-04-22T12:22:15.336Z,60.00
2019-04-22T12:23:22.906Z,59.60
2019-04-22T12:24:28.160Z,59.40
2019-04-22T12:25:44.368Z,59.50
2019-04-22T12:26:40.086Z,59.50
2019-04-22T12:27:45.421Z,59.50
2019-04-22T12:28:51.006Z,58.70
2019-04-22T12:29:56.783Z,58.10
2019-04-22T12:31:01.816Z,58.80
2019-04-22T12:32:07.562Z,58.90
2019-04-22T12:33:14.570Z,60.00
2019-04-22T12:34:19.648Z,60.40
2019-04-22T12:35:24.656Z,60.60
2019-04-22T12:36:30.745Z,59.50
2019-04-22T12:37:46.758Z,59.10
2019-04-22T12:38:42.974Z,59.20
2019-04-22T12:39:52.652Z,59.00
2019-04-22T12:40:59.099Z,60.80
2019-04-22T12:42:02.481Z,60.20
2019-04-22T12:43:08.713Z,59.50
2019-04-22T12:44:15.066Z,59.60
2019-04-22T12:45:20.564Z,59.80
2019-04-22T12:46:26.133Z,58.30
2019-04-22T12:47:33.481Z,57.10
2019-04-22T12:48:37.200Z,57.10
2019-04-22T12:49:42.513Z,57.60
2019-04-22T12:50:50.593Z,58.50
2019-04-22T12:51:54.845Z,57.10
2019-04-22T12:53:06.830Z,56.80
2019-04-22T12:54:07.106Z,57.70
2019-04-22T12:55:14.256Z,57.30
2019-04-22T12:56:19.778Z,57.70
2019-04-22T12:57:24.943Z,58.00
2019-04-22T12:58:29.894Z,57.60
2019-04-22T12:59:35.373Z,57.70
2019-04-22T13:00:40.791Z,59.00
2019-04-22T13:01:46.777Z,59.60
2019-04-22T13:02:51.531Z,58.50
2019-04-22T13:04:02.051Z,57.70
2019-04-22T13:05:03.838Z,57.60
2019-04-22T13:06:09.847Z,57.00
2019-04-22T13:07:15.843Z,58.20
2019-04-22T13:08:20.614Z,58.90
2019-04-22T13:09:25.268Z,59.00
2019-04-22T13:10:41.595Z,58.80
2019-04-22T13:11:38.457Z,58.10
2019-04-22T13:12:44.464Z,57.80
2019-04-22T13:13:51.206Z,57.20
2019-04-22T13:14:57.209Z,57.50
2019-04-22T13:16:02.781Z,58.20
2019-04-22T13:17:08.159Z,58.20
2019-04-22T13:18:21.365Z,58.20
2019-04-22T13:19:22.580Z,58.00
2019-04-22T13:20:28.066Z,58.10
2019-04-22T13:21:33.146Z,58.80
2019-04-22T13:22:38.862Z,58.30
2019-04-22T13:23:44.968Z,58.00
2019-04-22T13:24:49.937Z,58.00
2019-04-22T13:27:01.359Z,57.50
2019-04-22T13:28:07.231Z,57.80
2019-04-22T13:29:12.916Z,57.90
2019-04-22T13:30:20.718Z,57.00
2019-04-22T13:31:26.830Z,57.90
2019-04-22T13:32:31.708Z,56.50
2019-04-22T13:33:38.529Z,56.90
2019-04-22T13:34:48.143Z,56.80
2019-04-22T13:35:50.026Z,56.40
2019-04-22T13:36:55.046Z,57.10
2019-04-22T13:38:01.243Z,56.70
2019-04-22T13:39:08.947Z,56.40
2019-04-22T13:40:15.090Z,57.00
2019-04-22T13:41:31.085Z,57.60
2019-04-22T13:42:27.552Z,57.60
2019-04-22T13:43:32.711Z,57.40
2019-04-22T13:44:37.783Z,57.70
2019-04-22T13:45:43.729Z,57.30
2019-04-22T13:48:31.144Z,57.70
2019-04-22T13:49:49.500Z,57.20
2019-04-22T13:50:56.419Z,56.20
2019-04-22T13:52:02.282Z,56.30
2019-04-22T13:54:42.390Z,54.20
2019-04-22T13:55:24.992Z,54.00
2019-04-22T13:56:19.118Z,54.30
2019-04-22T13:57:25.768Z,54.80
2019-04-22T13:58:24.316Z,55.50
2019-04-22T13:59:28.230Z,56.40
2019-04-22T14:00:31.034Z,55.50
2019-04-22T14:02:06.336Z,55.90
2019-04-22T14:03:46.904Z,55.30
2019-04-22T14:04:52.651Z,55.10
2019-04-22T14:05:58.625Z,54.20
2019-04-22T14:07:05.000Z,54.40
2019-04-22T14:08:10.714Z,54.60
2019-04-22T14:09:17.217Z,53.80
2019-04-22T14:10:24.758Z,54.70
2019-04-22T14:11:39.075Z,55.20
2019-04-22T14:12:37.118Z,55.30
2019-04-22T14:13:42.043Z,53.10
2019-04-22T14:14:49.076Z,53.20
2019-04-22T14:15:53.401Z,53.40
2019-04-22T14:17:00.744Z,53.40
2019-04-22T14:18:07.457Z,53.00
2019-04-22T14:19:12.231Z,53.10
2019-04-22T14:20:18.786Z,53.50
2019-04-22T14:21:24.666Z,53.70
2019-04-22T14:22:30.542Z,53.10
2019-04-22T14:23:35.302Z,53.70
2019-04-22T14:24:40.657Z,53.80
2019-04-22T14:25:46.361Z,55.00
2019-04-22T14:27:06.997Z,54.70
2019-04-22T14:28:05.438Z,54.50
2019-04-22T14:29:07.890Z,54.20
2019-04-22T14:30:16.629Z,53.60
2019-04-22T14:31:22.374Z,54.20
2019-04-22T14:32:30.286Z,53.00
2019-04-22T14:33:34.173Z,51.20
2019-04-22T14:34:39.030Z,51.30
2019-04-22T14:35:43.648Z,50.90
2019-04-22T14:36:48.295Z,51.20
2019-04-22T14:37:54.402Z,50.40
2019-04-22T14:38:59.770Z,50.70
2019-04-22T14:40:09.229Z,51.70
2019-04-22T14:41:30.461Z,51.80
2019-04-22T14:42:34.327Z,52.20
2019-04-22T14:43:57.916Z,52.20
2019-04-22T14:45:20.171Z,52.20
2019-04-22T14:46:07.042Z,52.80
2019-04-22T14:47:11.626Z,53.30
2019-04-22T14:48:10.991Z,54.20
2019-04-22T14:49:24.863Z,54.30
2019-04-22T14:50:22.050Z,54.10
2019-04-22T14:51:26.096Z,55.30
2019-04-22T14:52:39.564Z,54.80
2019-04-22T14:53:41.072Z,53.40
2019-04-22T14:54:44.685Z,53.60
2019-04-22T14:55:38.223Z,53.30
2019-04-22T14:56:42.358Z,54.00
2019-04-22T14:57:48.976Z,53.50
2019-04-22T14:58:54.963Z,53.20
2019-04-22T15:00:00.131Z,53.80
2019-04-22T15:01:06.823Z,54.10
2019-04-22T15:02:13.864Z,54.80
2019-04-22T15:03:19.679Z,55.00
2019-04-22T15:04:24.389Z,54.10
2019-04-22T15:05:30.261Z,52.90
2019-04-22T15:06:36.137Z,52.90
2019-04-22T15:07:43.391Z,53.20
2019-04-22T15:08:48.987Z,52.80
2019-04-22T15:09:55.721Z,53.50
2019-04-22T15:11:02.074Z,54.00
2019-04-22T15:12:17.490Z,52.00
2019-04-22T15:13:15.512Z,51.60
2019-04-22T15:14:21.477Z,51.80
2019-04-22T15:15:34.408Z,52.00
2019-04-22T15:17:07.044Z,52.50
2019-04-22T15:18:19.882Z,53.60
2019-04-22T15:19:35.890Z,53.70
2019-04-22T15:20:54.290Z,53.60
2019-04-22T15:21:59.172Z,52.90
2019-04-22T15:23:04.734Z,52.90
2019-04-22T15:24:29.398Z,53.90
2019-04-22T15:25:34.843Z,54.70
2019-04-22T15:26:40.130Z,54.40
2019-04-22T15:27:45.899Z,54.80
2019-04-22T15:28:51.435Z,55.50
2019-04-22T15:29:57.054Z,55.10
2019-04-22T15:31:01.931Z,56.50
2019-04-22T15:32:07.541Z,56.20
2019-04-22T15:33:12.568Z,55.80
2019-04-22T15:34:18.593Z,55.20
2019-04-22T15:35:25.119Z,54.50
2019-04-22T15:36:30.781Z,54.60
2019-04-22T15:37:37.260Z,54.40
2019-04-22T15:38:42.238Z,54.20
2019-04-22T15:39:47.899Z,54.40
2019-04-22T15:40:52.603Z,54.70
2019-04-22T15:42:06.530Z,54.90
2019-04-22T15:43:04.731Z,54.70
2019-04-22T15:44:10.118Z,54.80
2019-04-22T15:45:16.905Z,54.80
2019-04-22T15:46:21.496Z,56.00
2019-04-22T15:47:27.092Z,56.30
2019-04-22T15:48:33.795Z,56.90
2019-04-22T15:49:38.201Z,56.60
2019-04-22T15:50:44.538Z,55.50
2019-04-22T15:51:49.449Z,54.60
2019-04-22T15:52:57.075Z,55.50
2019-04-22T15:54:01.429Z,54.60
2019-04-22T15:55:06.824Z,54.80
2019-04-22T15:56:12.618Z,54.20
2019-04-22T15:57:17.568Z,54.10
2019-04-22T15:58:23.636Z,54.30
2019-04-22T15:59:45.013Z,55.50
2019-04-22T16:00:44.419Z,55.40
2019-04-22T16:01:44.856Z,54.40
2019-04-22T16:02:49.960Z,54.60
2019-04-22T16:03:54.768Z,54.80
2019-04-22T16:04:59.454Z,55.30
2019-04-22T16:06:04.135Z,54.70
2019-04-22T16:07:08.843Z,54.50
2019-04-22T16:08:15.001Z,55.50
2019-04-22T16:09:20.625Z,55.20